Time;durP1;ratioP1;P1;durP2;ratioP2;P2;SDS_P1;SDS_P2;PMS_P1;PMS_P2;Temp;Humidity;BMP_temperature;BMP_pressure;BME280_temperature;BME280_humidity;BME280_pressure;Samples;Min_cycle;Max_cycle;Signal;HPM_P1;HPM_P2
2023/05/02 00:00:08;;;;;;;7.00;6.30;;;;;;;11.63;74.42;96271.31;5025381;28;20188;-71
2023/05/02 00:02:33;;;;;;;7.10;6.40;;;;;;;11.56;74.86;96269.91;5021203;28;20240;-71
2023/05/02 00:04:59;;;;;;;7.30;6.17;;;;;;;11.57;74.35;96271.59;5014929;28;20510;-71
2023/05/02 00:07:25;;;;;;;7.10;5.70;;;;;;;11.57;74.39;96271.59;5014392;28;20176;-69
2023/05/02 00:09:51;;;;;;;8.30;6.40;;;;;;;11.64;73.88;96270.38;5015147;28;20215;-71
2023/05/02 00:12:16;;;;;;;6.33;5.80;;;;;;;11.60;73.65;96266.22;5014221;28;20411;-70
2023/05/02 00:14:42;;;;;;;7.90;7.10;;;;;;;11.51;74.35;96266.66;5014956;28;20539;-68
2023/05/02 00:17:07;;;;;;;6.20;5.70;;;;;;;11.56;73.88;96271.69;5014851;28;20199;-71
2023/05/02 00:19:37;;;;;;;6.03;5.53;;;;;;;11.50;74.24;96264.94;5015536;28;20200;-70
2023/05/02 00:22:03;;;;;;;6.43;5.83;;;;;;;11.55;74.42;96262.97;5014158;28;20191;-72
2023/05/02 00:24:28;;;;;;;7.70;5.80;;;;;;;11.51;73.87;96271.91;5014478;28;20420;-71
2023/05/02 00:26:53;;;;;;;6.37;5.80;;;;;;;11.53;73.51;96270.06;5014392;28;20172;-72
2023/05/02 00:29:19;;;;;;;5.80;5.20;;;;;;;11.36;74.09;96268.28;5013887;28;20175;-72
2023/05/02 00:31:45;;;;;;;7.40;5.50;;;;;;;11.48;73.93;96271.22;5013691;28;20187;-71
2023/05/02 00:34:10;;;;;;;6.33;5.47;;;;;;;11.44;73.47;96275.78;5013732;28;20176;-71
2023/05/02 00:36:36;;;;;;;8.70;5.60;;;;;;;11.48;73.60;96264.19;5013540;28;20169;-70
2023/05/02 00:39:01;;;;;;;5.83;5.33;;;;;;;11.29;74.43;96261.63;5015050;28;20179;-69
2023/05/02 00:41:27;;;;;;;6.53;5.43;;;;;;;11.36;73.79;96270.03;5014895;28;20231;-68
2023/05/02 00:43:52;;;;;;;11.03;8.20;;;;;;;11.43;72.96;96264.44;5014062;28;20172;-70
2023/05/02 00:46:17;;;;;;;6.40;5.80;;;;;;;11.31;73.41;96270.25;5015453;28;20204;-70
2023/05/02 00:48:44;;;;;;;6.37;5.77;;;;;;;11.33;74.04;96267.56;5016384;28;20172;-70
2023/05/02 00:51:11;;;;;;;7.33;6.63;;;;;;;11.28;73.63;96259.06;5018247;28;20196;-70
2023/05/02 00:53:36;;;;;;;7.60;6.80;;;;;;;11.23;74.15;96268.00;5034068;28;20414;-70
2023/05/02 00:56:02;;;;;;;6.63;6.03;;;;;;;11.15;74.13;96258.78;5018841;28;20483;-70
2023/05/02 00:58:28;;;;;;;8.23;7.47;;;;;;;11.22;73.81;96254.97;5018858;28;20172;-69
2023/05/02 01:01:11;;;;;;;6.53;5.93;;;;;;;11.15;74.31;96262.28;5018932;28;20338;-72
2023/05/02 01:04:07;;;;;;;6.87;6.17;;;;;;;11.06;74.29;96262.72;5019319;28;20786;-70
2023/05/02 01:06:41;;;;;;;8.70;6.20;;;;;;;11.04;74.26;96266.38;5019247;28;20666;-71
2023/05/02 01:09:16;;;;;;;7.30;6.60;;;;;;;11.10;73.88;96268.69;5019366;28;20433;-71
2023/05/02 01:12:01;;;;;;;7.23;6.50;;;;;;;11.01;74.28;96268.22;5018361;28;20426;-69
2023/05/02 01:14:30;;;;;;;10.70;6.80;;;;;;;11.19;73.63;96273.50;5018239;28;20422;-70
2023/05/02 01:16:57;;;;;;;8.33;7.20;;;;;;;11.11;73.97;96267.78;5017492;28;20446;-73
2023/05/02 01:19:33;;;;;;;8.13;7.27;;;;;;;10.97;74.38;96274.53;5017734;28;20493;-72
2023/05/02 01:22:05;;;;;;;13.17;7.73;;;;;;;11.00;74.17;96271.75;5017935;28;20525;-69
2023/05/02 01:25:08;;;;;;;9.63;7.50;;;;;;;11.02;74.22;96275.16;5017572;28;20419;-70
2023/05/02 01:27:52;;;;;;;8.53;7.23;;;;;;;11.02;74.30;96285.66;5016899;28;20403;-71
2023/05/02 01:30:20;;;;;;;8.63;7.83;;;;;;;10.95;74.46;96284.25;5013253;28;21212;-69
2023/05/02 01:32:47;;;;;;;8.13;7.37;;;;;;;10.88;74.54;96284.59;5013180;28;20826;-71
2023/05/02 01:35:19;;;;;;;7.83;6.50;;;;;;;10.95;74.15;96279.00;5013162;28;20414;-70
2023/05/02 01:37:46;;;;;;;7.23;6.40;;;;;;;10.99;74.08;96290.22;5011960;28;20530;-70
2023/05/02 01:40:15;;;;;;;14.80;7.70;;;;;;;11.03;73.98;96289.13;5013470;28;20446;-70
2023/05/02 01:42:43;;;;;;;8.07;7.37;;;;;;;10.98;74.17;96288.50;5013470;28;20418;-70
2023/05/02 01:45:11;;;;;;;7.53;6.80;;;;;;;10.76;74.62;96284.25;5011367;28;20814;-71
2023/05/02 01:47:39;;;;;;;7.83;7.03;;;;;;;10.83;74.22;96291.84;5012031;28;20415;-69
2023/05/02 01:50:08;;;;;;;8.00;6.67;;;;;;;10.88;74.31;96292.47;5011134;28;20435;-71
2023/05/02 01:52:35;;;;;;;8.70;7.80;;;;;;;10.78;74.71;96292.06;5011363;28;20456;-70
2023/05/02 01:55:03;;;;;;;9.90;7.50;;;;;;;10.70;74.70;96300.31;5012254;28;20407;-71
2023/05/02 01:57:30;;;;;;;8.13;7.00;;;;;;;10.79;74.52;96299.88;5009440;28;20419;-69
2023/05/02 01:59:57;;;;;;;8.60;7.27;;;;;;;10.78;74.39;96292.06;5012381;28;21010;-71
2023/05/02 02:02:26;;;;;;;9.93;7.50;;;;;;;10.72;74.58;96297.59;5011213;28;20907;-70
2023/05/02 02:04:55;;;;;;;7.73;6.93;;;;;;;10.78;74.48;96287.66;5010585;28;21261;-72
2023/05/02 02:07:20;;;;;;;8.03;7.23;;;;;;;10.75;74.46;96295.69;5007490;28;20446;-69
2023/05/02 02:09:46;;;;;;;7.47;6.70;;;;;;;10.77;74.27;96293.84;5010519;28;20684;-71
2023/05/02 02:12:20;;;;;;;8.17;7.37;;;;;;;10.69;74.70;96298.59;5009752;28;20243;-71
2023/05/02 02:14:55;;;;;;;8.80;7.20;;;;;;;10.77;74.36;96296.47;5010356;28;20243;-70
2023/05/02 02:17:28;;;;;;;8.33;7.50;;;;;;;10.77;74.15;96303.47;5009728;28;20759;-70
2023/05/02 02:19:55;;;;;;;8.00;7.23;;;;;;;10.74;73.85;96307.09;5010473;28;20431;-70
2023/05/02 02:22:24;;;;;;;8.37;7.57;;;;;;;10.72;73.98;96308.09;5009874;28;20411;-72
2023/05/02 02:24:52;;;;;;;7.73;7.03;;;;;;;10.73;74.25;96301.94;5010306;28;20962;-70
2023/05/02 02:27:18;;;;;;;8.10;7.30;;;;;;;10.62;74.65;96310.28;5009531;28;20423;-69
2023/05/02 02:29:44;;;;;;;10.70;7.60;;;;;;;10.60;74.59;96310.34;5009694;28;20450;-71
2023/05/02 02:32:09;;;;;;;11.43;7.80;;;;;;;10.64;74.08;96310.22;5008074;28;20168;-71
2023/05/02 02:34:35;;;;;;;13.70;9.90;;;;;;;10.69;73.93;96309.06;5010180;28;20477;-71
2023/05/02 02:37:10;;;;;;;12.10;7.77;;;;;;;10.64;74.01;96313.69;5012245;28;20256;-70
2023/05/02 02:39:59;;;;;;;8.67;7.33;;;;;;;10.59;74.30;96313.06;5022107;28;20182;-71
2023/05/02 02:42:43;;;;;;;8.87;8.07;;;;;;;10.63;73.92;96313.75;5020797;28;20406;-69
2023/05/02 02:45:33;;;;;;;9.13;8.27;;;;;;;10.51;73.88;96318.66;5014423;28;20458;-71
2023/05/02 02:48:18;;;;;;;8.33;7.50;;;;;;;10.61;74.12;96313.84;5012525;28;20419;-71
2023/05/02 02:50:52;;;;;;;9.77;7.30;;;;;;;10.48;74.41;96326.63;5010678;28;20442;-71
2023/05/02 02:53:24;;;;;;;9.40;8.47;;;;;;;10.52;74.11;96312.47;5012025;28;20465;-71
2023/05/02 02:55:59;;;;;;;10.63;9.23;;;;;;;10.53;74.42;96324.66;5010721;28;20410;-72
2023/05/02 02:58:49;;;;;;;8.60;7.73;;;;;;;10.49;74.71;96317.88;5010221;28;20489;-72
2023/05/02 03:01:19;;;;;;;8.93;8.07;;;;;;;10.63;74.08;96324.25;5013605;28;20423;-70
2023/05/02 03:03:46;;;;;;;8.43;7.63;;;;;;;10.54;74.43;96328.16;5015361;28;20455;-71
2023/05/02 03:06:11;;;;;;;9.23;8.30;;;;;;;10.45;74.77;96332.03;5014463;28;20997;-71
2023/05/02 03:08:42;;;;;;;9.77;8.87;;;;;;;10.72;74.17;96329.94;5014885;28;20419;-68
2023/05/02 03:11:08;;;;;;;11.37;10.27;;;;;;;10.57;74.47;96326.22;5014930;28;20200;-72
2023/05/02 03:13:34;;;;;;;10.70;9.60;;;;;;;10.50;75.00;96329.22;5011037;28;20782;-71
2023/05/02 03:16:38;;;;;;;13.40;9.83;;;;;;;10.42;74.81;96339.16;5009950;28;20722;-70
2023/05/02 03:19:03;;;;;;;10.93;9.93;;;;;;;10.39;75.08;96340.16;5010637;28;20422;-71
2023/05/02 03:21:32;;;;;;;9.83;8.83;;;;;;;10.36;74.88;96341.16;5008709;28;20459;-70
2023/05/02 03:24:02;;;;;;;10.53;9.33;;;;;;;10.37;75.11;96337.63;5011565;28;20191;-70
2023/05/02 03:26:28;;;;;;;9.43;8.50;;;;;;;10.37;75.29;96348.13;5013057;28;20485;-71
2023/05/02 03:28:55;;;;;;;12.20;8.73;;;;;;;10.43;74.71;96347.00;5013191;28;20426;-71
2023/05/02 03:31:21;;;;;;;11.47;10.27;;;;;;;10.37;74.85;96342.88;5013173;28;20188;-72
2023/05/02 03:33:47;;;;;;;9.73;8.50;;;;;;;10.39;75.41;96340.16;5013690;28;20414;-71
2023/05/02 03:36:13;;;;;;;9.23;8.33;;;;;;;10.41;75.37;96340.09;5013171;28;20252;-72
2023/05/02 03:38:39;;;;;;;9.23;8.30;;;;;;;10.32;75.35;96349.22;5014558;28;20506;-70
2023/05/02 03:41:04;;;;;;;11.10;9.10;;;;;;;10.47;74.70;96353.81;5015771;28;20196;-70
2023/05/02 03:43:30;;;;;;;10.97;9.87;;;;;;;10.34;75.49;96348.22;5017849;28;20199;-73
2023/05/02 03:45:56;;;;;;;10.27;9.17;;;;;;;10.29;75.29;96352.00;5016034;28;20204;-70
2023/05/02 03:48:22;;;;;;;10.23;9.10;;;;;;;10.21;75.44;96354.91;5010912;28;20469;-70
2023/05/02 03:50:48;;;;;;;10.83;9.50;;;;;;;10.16;75.37;96362.13;5009393;28;20224;-70
2023/05/02 03:53:15;;;;;;;10.97;9.87;;;;;;;10.14;75.97;96369.22;5009312;28;20183;-70
2023/05/02 03:55:41;;;;;;;12.03;10.20;;;;;;;10.21;75.62;96369.81;5009459;28;20843;-71
2023/05/02 03:58:07;;;;;;;12.33;9.67;;;;;;;10.34;74.98;96366.59;5009233;28;20423;-70
2023/05/02 04:00:32;;;;;;;11.30;10.10;;;;;;;10.22;75.46;96372.34;5009472;28;20445;-70
2023/05/02 04:03:00;;;;;;;15.80;11.30;;;;;;;10.27;75.20;96375.63;5009608;28;20273;-71
2023/05/02 04:05:26;;;;;;;13.87;11.70;;;;;;;10.40;74.90;96377.75;5009711;28;20303;-70
2023/05/02 04:07:51;;;;;;;17.70;14.30;;;;;;;10.33;75.48;96385.88;5009220;28;20486;-70
2023/05/02 04:10:17;;;;;;;18.43;14.90;;;;;;;10.30;75.45;96387.78;5009283;28;20243;-71
2023/05/02 04:12:43;;;;;;;23.23;14.70;;;;;;;10.37;75.50;96392.72;5023774;28;20212;-70
2023/05/02 04:15:09;;;;;;;23.53;18.00;;;;;;;10.36;74.94;96391.00;5007740;28;20207;-72
2023/05/02 04:17:35;;;;;;;19.20;14.00;;;;;;;10.38;74.82;96399.66;5023567;28;20427;-70
2023/05/02 04:20:01;;;;;;;12.10;10.83;;;;;;;10.24;75.30;96401.97;5008863;28;20486;-70
2023/05/02 04:22:26;;;;;;;11.50;10.10;;;;;;;10.24;75.01;96415.09;5009093;28;20169;-71
2023/05/02 04:24:53;;;;;;;14.03;11.10;;;;;;;10.12;75.03;96411.22;5009023;28;20203;-70
2023/05/02 04:27:18;;;;;;;15.83;11.30;;;;;;;10.21;75.64;96414.38;5008480;28;20184;-70
2023/05/02 04:29:47;;;;;;;10.97;9.80;;;;;;;10.22;75.08;96419.56;5008974;28;20526;-71
2023/05/02 04:32:12;;;;;;;11.70;10.30;;;;;;;10.21;75.33;96423.09;5006403;28;20176;-71
2023/05/02 04:34:38;;;;;;;15.33;10.90;;;;;;;10.20;75.21;96417.91;5006976;28;20479;-71
2023/05/02 04:37:07;;;;;;;10.57;9.47;;;;;;;10.15;75.04;96429.44;5007536;28;20176;-71
2023/05/02 04:39:33;;;;;;;12.10;10.80;;;;;;;10.11;75.61;96427.00;5009200;28;20660;-71
2023/05/02 04:41:59;;;;;;;17.00;10.37;;;;;;;10.13;74.81;96431.31;5006406;28;20411;-72
2023/05/02 04:44:24;;;;;;;14.53;10.00;;;;;;;10.24;75.33;96436.06;5007656;28;20411;-71
2023/05/02 04:46:50;;;;;;;10.13;9.07;;;;;;;10.38;74.29;96436.38;5005398;28;20820;-71
2023/05/02 04:49:16;;;;;;;16.30;10.07;;;;;;;10.40;74.05;96435.47;5007640;28;20251;-71
2023/05/02 04:51:41;;;;;;;11.03;8.47;;;;;;;10.24;74.45;96436.06;5018180;28;20196;-72
2023/05/02 04:54:07;;;;;;;11.50;9.43;;;;;;;10.23;74.36;96439.63;5025474;28;20179;-71
2023/05/02 04:56:32;;;;;;;9.60;8.70;;;;;;;10.16;74.75;96444.28;5027264;28;20210;-71
2023/05/02 04:58:58;;;;;;;10.47;9.47;;;;;;;10.25;74.27;96444.78;5025501;28;20179;-70
2023/05/02 05:01:26;;;;;;;17.53;9.87;;;;;;;10.27;74.81;96443.81;5018144;28;20699;-70
2023/05/02 05:03:53;;;;;;;10.47;9.37;;;;;;;10.25;74.37;96453.53;5005261;28;20709;-69
2023/05/02 05:06:18;;;;;;;13.00;11.50;;;;;;;10.30;75.32;96448.97;4996938;28;20461;-70
2023/05/02 05:08:44;;;;;;;13.37;11.27;;;;;;;10.51;74.14;96451.59;5003117;28;20415;-71
2023/05/02 05:11:10;;;;;;;10.13;9.13;;;;;;;10.48;73.62;96452.56;5005319;28;20183;-71
2023/05/02 05:13:36;;;;;;;13.30;10.77;;;;;;;10.47;73.66;96453.50;5005132;28;20553;-69
2023/05/02 05:16:02;;;;;;;9.90;8.50;;;;;;;10.47;73.36;96461.38;5004524;28;20164;-70
2023/05/02 05:18:27;;;;;;;11.10;9.53;;;;;;;10.61;73.08;96466.03;5005776;28;20427;-71
2023/05/02 05:20:53;;;;;;;10.40;8.80;;;;;;;10.55;73.27;96461.88;5004444;28;20994;-71
2023/05/02 05:23:18;;;;;;;15.23;8.73;;;;;;;10.72;72.16;96461.16;5018983;28;20193;-69
2023/05/02 05:25:44;;;;;;;12.60;10.10;;;;;;;10.85;72.05;96460.66;4997373;28;20208;-71
2023/05/02 05:28:10;;;;;;;10.70;9.60;;;;;;;10.81;72.43;96463.38;4999296;28;20176;-71
2023/05/02 05:30:35;;;;;;;11.67;9.67;;;;;;;10.94;72.29;96461.09;5019199;28;20191;-71
2023/05/02 05:33:00;;;;;;;14.23;10.00;;;;;;;10.99;71.24;96464.34;5020645;28;20575;-70
2023/05/02 05:35:26;;;;;;;14.97;9.50;;;;;;;11.01;71.54;96467.78;5017559;28;20168;-71
2023/05/02 05:37:52;;;;;;;18.50;10.60;;;;;;;10.99;71.19;96474.00;5006774;28;20220;-71
2023/05/02 05:40:18;;;;;;;12.50;8.93;;;;;;;11.20;71.02;96473.06;5001352;28;20803;-70
2023/05/02 05:42:43;;;;;;;23.40;11.80;;;;;;;11.33;70.15;96475.13;5005102;28;20450;-70
2023/05/02 05:45:09;;;;;;;9.57;5.30;;;;;;;12.82;75.90;96474.03;4998814;28;20682;-68
2023/05/02 05:47:35;;;;;;;12.23;8.73;;;;;;;12.44;66.38;96479.44;5002361;28;20615;-70
2023/05/02 05:50:00;;;;;;;9.13;8.00;;;;;;;12.53;65.34;96482.56;5000832;28;20490;-70
2023/05/02 05:52:29;;;;;;;12.70;8.13;;;;;;;12.55;65.24;96485.97;5021987;28;20184;-68
2023/05/02 05:54:56;;;;;;;9.67;8.50;;;;;;;12.85;64.06;96478.28;5008305;28;20184;-70
2023/05/02 05:57:22;;;;;;;12.03;8.17;;;;;;;12.83;64.95;96481.00;5004846;28;20419;-69
2023/05/02 05:59:52;;;;;;;12.20;7.57;;;;;;;12.88;64.64;96483.41;5017629;28;20466;-69
2023/05/02 06:02:21;;;;;;;7.50;6.80;;;;;;;12.91;63.62;96478.81;5015003;28;20459;-70
2023/05/02 06:04:47;;;;;;;8.00;7.20;;;;;;;13.05;63.50;96490.44;5003982;28;20498;-69
2023/05/02 06:07:56;;;;;;;10.67;7.53;;;;;;;13.03;64.00;96490.50;5029049;28;20431;-69
2023/05/02 06:10:32;;;;;;;8.33;7.50;;;;;;;13.01;63.57;96494.16;5017926;28;20208;-71
2023/05/02 06:12:58;;;;;;;9.20;7.17;;;;;;;13.12;62.82;96491.81;5010122;28;21187;-70
2023/05/02 06:15:23;;;;;;;8.30;7.33;;;;;;;13.10;63.65;96498.94;5008739;28;20435;-70
2023/05/02 06:17:52;;;;;;;8.83;7.73;;;;;;;13.37;62.40;96495.78;5014082;28;20183;-72
2023/05/02 06:20:17;;;;;;;9.40;7.93;;;;;;;13.45;62.66;96493.63;5015381;28;20647;-69
2023/05/02 06:22:43;;;;;;;9.80;7.33;;;;;;;13.56;62.37;96499.16;5006935;28;20475;-70
2023/05/02 06:25:08;;;;;;;9.10;6.90;;;;;;;13.77;62.24;96508.53;5003796;28;20488;-69
2023/05/02 06:27:34;;;;;;;8.57;7.70;;;;;;;13.86;61.85;96501.03;5003765;28;20173;-69
2023/05/02 06:30:00;;;;;;;7.73;6.93;;;;;;;13.88;61.74;96507.09;5003577;28;20709;-69
2023/05/02 06:32:29;;;;;;;9.53;7.63;;;;;;;13.41;63.58;96513.16;5003995;28;20237;-70
2023/05/02 06:34:55;;;;;;;8.03;7.27;;;;;;;13.57;62.65;96508.75;5004006;28;20183;-69
2023/05/02 06:37:20;;;;;;;9.30;8.47;;;;;;;13.47;63.15;96521.59;5004338;28;20841;-71
2023/05/02 06:39:46;;;;;;;8.33;7.50;;;;;;;13.52;63.25;96513.44;5004975;28;20200;-70
2023/05/02 06:42:11;;;;;;;11.60;7.93;;;;;;;13.44;63.72;96519.13;4999395;28;20237;-71
2023/05/02 06:44:37;;;;;;;8.43;7.63;;;;;;;13.32;63.76;96515.38;5002979;28;20191;-71
2023/05/02 06:47:03;;;;;;;12.33;8.73;;;;;;;13.49;63.38;96516.25;5004044;28;20637;-70
2023/05/02 06:49:29;;;;;;;9.97;8.97;;;;;;;13.76;63.04;96519.16;5000815;28;20186;-70
2023/05/02 06:51:54;;;;;;;12.97;8.07;;;;;;;14.05;61.54;96522.81;4997318;28;20440;-71
2023/05/02 06:54:20;;;;;;;13.70;8.13;;;;;;;14.24;60.85;96522.63;5001972;28;20191;-70
2023/05/02 06:56:46;;;;;;;14.40;9.10;;;;;;;14.24;60.84;96533.19;5001247;28;20183;-70
2023/05/02 06:59:11;;;;;;;11.37;10.37;;;;;;;14.45;60.48;96536.41;5005648;28;20183;-70
2023/05/02 07:01:37;;;;;;;10.93;9.93;;;;;;;14.29;60.77;96538.22;5001612;28;20258;-69
2023/05/02 07:04:04;;;;;;;11.93;10.83;;;;;;;13.80;62.29;96541.81;5002535;28;20239;-69
2023/05/02 07:06:30;;;;;;;13.67;12.37;;;;;;;13.77;63.95;96537.56;4998208;28;20216;-70
2023/05/02 07:08:56;;;;;;;12.33;11.23;;;;;;;13.80;63.05;96547.09;4997408;28;20569;-69
2023/05/02 07:11:23;;;;;;;13.10;12.00;;;;;;;13.74;63.23;96555.31;5005020;28;20902;-70
2023/05/02 07:13:48;;;;;;;11.83;10.73;;;;;;;13.63;63.28;96541.84;5000884;28;20239;-69
2023/05/02 07:16:14;;;;;;;14.33;12.83;;;;;;;13.64;63.98;96539.16;4999087;28;20465;-70
2023/05/02 07:18:41;;;;;;;12.93;11.33;;;;;;;13.64;64.36;96544.41;5006066;28;20205;-72
2023/05/02 07:21:07;;;;;;;12.40;10.80;;;;;;;13.57;63.87;96544.84;5005093;28;20237;-72
2023/05/02 07:23:32;;;;;;;12.27;10.97;;;;;;;13.50;63.96;96549.56;5003901;28;20533;-71
2023/05/02 07:25:58;;;;;;;11.70;10.60;;;;;;;13.61;64.12;96554.28;5003397;28;20941;-68
2023/05/02 07:28:23;;;;;;;13.03;10.90;;;;;;;13.50;64.57;96563.59;5001312;28;20207;-70
2023/05/02 07:30:49;;;;;;;11.97;10.77;;;;;;;13.46;64.76;96563.84;5001482;28;20219;-70
2023/05/02 07:33:15;;;;;;;13.53;12.23;;;;;;;13.54;64.55;96561.69;5000785;28;20192;-70
2023/05/02 07:35:41;;;;;;;14.33;11.60;;;;;;;13.43;65.62;96564.88;4999404;28;20184;-70
2023/05/02 07:38:06;;;;;;;15.93;11.07;;;;;;;13.31;65.77;96560.25;5003701;28;20188;-68
2023/05/02 07:40:32;;;;;;;12.20;11.10;;;;;;;12.88;66.67;96563.25;5002930;28;20476;-69
2023/05/02 07:43:00;;;;;;;23.23;12.50;;;;;;;13.16;66.27;96566.25;5002995;28;20187;-71
2023/05/02 07:45:26;;;;;;;22.53;11.70;;;;;;;13.20;65.43;96559.91;4993923;28;20212;-67
2023/05/02 07:47:51;;;;;;;14.63;11.10;;;;;;;12.88;67.24;96568.53;5004240;28;21300;-68
2023/05/02 07:50:16;;;;;;;16.33;11.70;;;;;;;13.11;67.04;96571.78;5003635;28;20212;-70
2023/05/02 07:52:42;;;;;;;18.93;11.87;;;;;;;13.22;66.89;96568.59;5009005;28;20176;-70
2023/05/02 07:55:08;;;;;;;13.03;11.67;;;;;;;13.18;nan;96573.19;5009162;28;20164;-70
2023/05/02 07:57:33;;;;;;;23.33;13.00;;;;;;;13.26;66.79;96573.63;5009439;28;20255;-69
2023/05/02 07:59:59;;;;;;;15.23;11.47;;;;;;;13.35;66.92;96577.59;5010950;28;20276;-70
2023/05/02 08:02:24;;;;;;;15.40;10.73;;;;;;;13.31;66.50;96582.16;5003422;28;20180;-69
2023/05/02 08:04:50;;;;;;;14.87;11.03;;;;;;;13.43;66.16;96579.84;4992345;28;20293;-70
2023/05/02 08:07:15;;;;;;;12.20;10.90;;;;;;;13.49;65.50;96576.88;5001830;28;20191;-70
2023/05/02 08:09:41;;;;;;;14.67;11.43;;;;;;;13.64;65.59;96583.97;5007198;28;20192;-72
2023/05/02 08:12:07;;;;;;;12.40;11.10;;;;;;;13.84;65.51;96587.31;5009041;28;20180;-69
2023/05/02 08:14:33;;;;;;;14.67;12.77;;;;;;;14.06;64.48;96584.41;5008841;28;20546;-68
2023/05/02 08:16:59;;;;;;;13.60;12.20;;;;;;;14.37;62.40;96588.81;5000304;28;20276;-71
2023/05/02 08:19:24;;;;;;;15.60;12.27;;;;;;;14.45;62.52;96591.03;5006266;28;20184;-69
2023/05/02 08:21:50;;;;;;;13.27;12.10;;;;;;;14.45;61.19;96597.16;5004262;28;21296;-70
2023/05/02 08:24:15;;;;;;;12.40;11.20;;;;;;;14.52;60.33;96584.44;5011569;28;20192;-68
2023/05/02 08:26:41;;;;;;;12.77;11.47;;;;;;;14.47;59.97;96592.63;5007857;28;20208;-70
2023/05/02 08:29:06;;;;;;;12.30;10.70;;;;;;;14.40;59.00;96592.13;5009520;28;20283;-69
2023/05/02 08:31:32;;;;;;;12.73;11.53;;;;;;;14.44;59.63;96594.59;5011498;28;20222;-70
2023/05/02 08:33:57;;;;;;;17.57;11.87;;;;;;;14.50;59.23;96594.25;5011591;28;20191;-69
2023/05/02 08:36:24;;;;;;;11.70;10.63;;;;;;;14.70;58.64;96598.44;5010366;28;20172;-69
2023/05/02 08:38:49;;;;;;;12.40;11.10;;;;;;;14.86;58.34;96591.34;5011252;28;20242;-69
2023/05/02 08:41:18;;;;;;;12.10;10.90;;;;;;;14.62;58.94;96593.56;5009833;28;20434;-71
2023/05/02 08:43:47;;;;;;;14.03;12.13;;;;;;;14.94;58.53;96591.72;5009277;28;20623;-69
2023/05/02 08:46:14;;;;;;;13.33;12.03;;;;;;;14.92;57.68;96605.97;5007095;28;20970;-71
2023/05/02 08:48:41;;;;;;;20.37;13.90;;;;;;;14.76;58.83;96606.00;5009850;28;20415;-71
2023/05/02 08:51:09;;;;;;;14.07;12.57;;;;;;;14.91;58.85;96599.84;5010024;28;20489;-69
2023/05/02 08:53:36;;;;;;;15.90;12.60;;;;;;;15.13;57.68;96598.59;5009411;28;20403;-71
2023/05/02 08:56:02;;;;;;;11.07;10.10;;;;;;;15.09;57.09;96600.53;5009105;28;20482;-68
2023/05/02 08:58:29;;;;;;;14.67;11.90;;;;;;;15.08;57.26;96605.94;5009652;28;21067;-70
2023/05/02 09:00:59;;;;;;;12.97;11.70;;;;;;;15.27;57.27;96606.56;5009170;28;20249;-71
2023/05/02 09:03:31;;;;;;;12.77;11.57;;;;;;;15.45;56.27;96604.63;5010204;28;20900;-70
2023/05/02 09:06:05;;;;;;;15.93;11.80;;;;;;;15.61;55.54;96608.03;5008810;28;20455;-71
2023/05/02 09:08:32;;;;;;;24.13;13.60;;;;;;;15.32;56.07;96611.56;5008711;28;20418;-70
2023/05/02 09:10:57;;;;;;;15.13;11.77;;;;;;;15.52;55.85;96618.31;5010161;28;20443;-73
2023/05/02 09:13:34;;;;;;;18.07;13.03;;;;;;;15.60;55.04;96621.34;5013431;28;20856;-71
2023/05/02 09:16:02;;;;;;;13.27;11.37;;;;;;;15.42;55.11;96618.84;5008747;28;20186;-70
2023/05/02 09:18:33;;;;;;;13.67;12.37;;;;;;;15.21;55.40;96612.19;5009280;28;20796;-69
2023/05/02 09:21:00;;;;;;;13.43;11.60;;;;;;;15.41;56.29;96611.88;5024626;28;20450;-71
2023/05/02 09:23:39;;;;;;;12.80;10.43;;;;;;;15.70;54.71;96617.22;5009130;28;20775;-70
2023/05/02 09:26:11;;;;;;;11.90;10.80;;;;;;;15.93;54.27;96620.28;5007430;28;20984;-70
2023/05/02 09:28:39;;;;;;;12.43;11.23;;;;;;;16.01;54.63;96621.47;5004006;28;20443;-71
2023/05/02 09:31:10;;;;;;;19.33;12.00;;;;;;;15.96;53.61;96623.56;5003718;28;20517;-68
2023/05/02 09:33:37;;;;;;;14.37;12.00;;;;;;;16.11;53.50;96628.84;5005950;28;20493;-70
2023/05/02 09:36:04;;;;;;;13.87;12.43;;;;;;;16.29;53.22;96635.66;5007627;28;20434;-71
2023/05/02 09:38:29;;;;;;;14.60;11.90;;;;;;;16.04;53.56;96629.25;5007712;28;20435;-70
2023/05/02 09:40:55;;;;;;;13.30;11.77;;;;;;;16.04;53.94;96629.25;5008326;28;20501;-69
2023/05/02 09:43:21;;;;;;;15.30;11.67;;;;;;;16.13;53.66;96632.25;5007691;28;20234;-72
2023/05/02 09:46:01;;;;;;;13.40;12.10;;;;;;;16.10;53.05;96628.00;5007908;28;20208;-70
2023/05/02 09:48:28;;;;;;;13.00;11.77;;;;;;;16.21;53.11;96628.19;5008497;28;20183;-71
2023/05/02 09:50:54;;;;;;;14.10;11.53;;;;;;;16.15;53.49;96633.00;5008400;28;20447;-69
2023/05/02 09:53:20;;;;;;;14.87;13.10;;;;;;;16.20;52.94;96631.78;5008598;28;20505;-70
2023/05/02 09:55:46;;;;;;;14.10;12.50;;;;;;;16.08;53.09;96632.53;5008167;28;20423;-70
2023/05/02 09:58:22;;;;;;;15.00;12.83;;;;;;;16.24;52.94;96632.44;5008379;28;20605;-70
2023/05/02 10:00:50;;;;;;;16.63;12.00;;;;;;;16.19;52.87;96632.72;5008774;28;20210;-71
2023/05/02 10:03:16;;;;;;;16.83;13.10;;;;;;;16.30;51.89;96629.41;5008703;28;20454;-70
2023/05/02 10:05:43;;;;;;;14.63;12.93;;;;;;;16.23;52.30;96638.69;5008312;28;20466;-70
2023/05/02 10:08:10;;;;;;;16.87;12.77;;;;;;;16.50;52.21;96634.28;5007718;28;20423;-70
2023/05/02 10:10:38;;;;;;;18.50;12.20;;;;;;;16.49;51.80;96642.34;5007624;28;20435;-72
2023/05/02 10:13:05;;;;;;;14.43;12.00;;;;;;;16.62;51.52;96632.66;5008145;28;20553;-71
2023/05/02 10:15:32;;;;;;;12.67;11.40;;;;;;;16.43;52.10;96640.06;5007907;28;20416;-73
2023/05/02 10:18:02;;;;;;;13.13;11.83;;;;;;;16.58;51.36;96633.78;5007781;28;20403;-72
2023/05/02 10:20:43;;;;;;;13.43;12.23;;;;;;;16.60;51.04;96647.78;5007942;28;20898;-70
2023/05/02 10:23:09;;;;;;;13.03;10.83;;;;;;;16.37;51.48;96645.75;5007651;28;20421;-71
2023/05/02 10:25:35;;;;;;;14.07;12.33;;;;;;;16.59;50.73;96632.00;5005270;28;20467;-70
2023/05/02 10:28:02;;;;;;;12.57;11.27;;;;;;;16.60;51.20;96634.53;5004211;28;20443;-70
2023/05/02 10:30:30;;;;;;;13.77;12.37;;;;;;;16.35;51.44;96640.56;5004592;28;20212;-70
2023/05/02 10:32:58;;;;;;;12.67;11.67;;;;;;;16.66;51.13;96634.16;5004230;28;20450;-70
2023/05/02 10:35:25;;;;;;;14.33;12.07;;;;;;;16.67;50.71;96627.88;5002074;28;20416;-70
2023/05/02 10:37:51;;;;;;;13.20;11.97;;;;;;;16.21;51.99;96628.19;5006090;28;20522;-70
2023/05/02 10:40:17;;;;;;;13.50;12.20;;;;;;;16.60;51.60;96631.03;5007124;28;20907;-70
2023/05/02 10:42:45;;;;;;;12.90;11.40;;;;;;;16.99;49.78;96625.00;5005556;28;20526;-70
2023/05/02 10:45:28;;;;;;;15.40;11.60;;;;;;;17.02;49.76;96622.13;5005845;28;20286;-72
2023/05/02 10:48:19;;;;;;;14.60;12.97;;;;;;;17.08;49.43;96629.69;5003656;28;20941;-70
2023/05/02 10:50:46;;;;;;;13.50;12.17;;;;;;;17.25;50.16;96614.44;5002223;28;20451;-70
2023/05/02 10:53:33;;;;;;;13.97;11.47;;;;;;;17.36;48.38;96609.25;5010327;28;20434;-70
2023/05/02 10:56:20;;;;;;;12.10;9.97;;;;;;;17.42;49.19;96613.31;5011828;28;20433;-70
2023/05/02 10:58:47;;;;;;;14.23;9.77;;;;;;;17.53;53.19;96608.97;5006888;28;20467;-70
2023/05/02 11:01:28;;;;;;;13.93;11.00;;;;;;;17.55;50.07;96601.75;5005162;28;20470;-69
2023/05/02 11:03:59;;;;;;;21.03;8.73;;;;;;;18.14;52.95;96601.22;5006763;28;20941;-70
2023/05/02 11:06:26;;;;;;;34.83;11.63;;;;;;;18.12;49.07;96604.94;5006403;28;20520;-71
2023/05/02 11:08:52;;;;;;;14.90;11.10;;;;;;;18.26;47.38;96599.50;5007773;28;20431;-69
2023/05/02 11:11:38;;;;;;;12.30;7.50;;;;;;;18.46;47.45;96594.56;5005086;28;20462;-72
2023/05/02 11:14:03;;;;;;;12.10;10.90;;;;;;;17.80;47.70;96604.50;5003621;28;20430;-71
2023/05/02 11:17:00;;;;;;;11.30;9.97;;;;;;;17.89;49.39;96599.44;5007274;28;20428;-70
2023/05/02 11:19:27;;;;;;;15.30;12.27;;;;;;;17.88;48.59;96607.50;4995633;28;20236;-69
2023/05/02 11:22:12;;;;;;;13.07;11.80;;;;;;;18.11;47.73;96595.28;5004498;28;20435;-72
2023/05/02 11:24:43;;;;;;;13.17;12.00;;;;;;;17.20;48.60;96601.50;5002558;28;20520;-71
2023/05/02 11:27:36;;;;;;;13.63;12.33;;;;;;;16.68;50.71;96589.03;5002122;28;20495;-69
2023/05/02 11:30:05;;;;;;;13.33;12.10;;;;;;;16.83;50.17;96595.97;5002396;28;20459;-70